createdAt,value
2023-05-08T00:00:05.093Z,15.50
2023-05-08T00:02:54.234Z,15.00
2023-05-08T00:05:22.637Z,15.00
2023-05-08T00:07:52.451Z,14.50
2023-05-08T00:10:20.702Z,14.00
2023-05-08T00:12:49.579Z,13.00
2023-05-08T00:15:17.836Z,14.00
2023-05-08T00:17:46.426Z,12.25
2023-05-08T00:20:15.023Z,14.00
2023-05-08T00:22:46.199Z,12.50
2023-05-08T00:25:14.395Z,13.00
2023-05-08T00:27:43.283Z,13.00
2023-05-08T00:30:12.244Z,12.25
2023-05-08T00:32:41.203Z,12.50
2023-05-08T00:35:09.556Z,12.50
2023-05-08T00:37:40.866Z,12.50
2023-05-08T00:40:10.619Z,12.75
2023-05-08T00:42:39.996Z,12.67
2023-05-08T00:45:09.171Z,14.25
2023-05-08T00:47:37.906Z,12.50
2023-05-08T00:50:06.594Z,12.00
2023-05-08T00:52:35.328Z,12.50
2023-05-08T00:55:05.699Z,13.00
2023-05-08T00:57:35.839Z,12.75
2023-05-08T01:00:05.837Z,13.00
2023-05-08T01:02:35.747Z,12.50
2023-05-08T01:05:05.542Z,12.25
2023-05-08T01:07:34.160Z,11.50
2023-05-08T01:10:02.565Z,13.00
2023-05-08T01:13:12.399Z,11.00
2023-05-08T01:15:59.338Z,12.67
2023-05-08T01:18:37.712Z,11.00
2023-05-08T01:21:21.762Z,11.75
2023-05-08T01:24:04.000Z,11.25
2023-05-08T01:26:56.963Z,13.00
2023-05-08T01:30:02.772Z,12.50
2023-05-08T01:32:39.896Z,11.33
2023-05-08T01:35:20.243Z,12.75
2023-05-08T01:38:04.310Z,12.75
2023-05-08T01:40:45.520Z,12.50
2023-05-08T01:43:16.767Z,12.75
2023-05-08T01:45:49.979Z,11.00
2023-05-08T01:48:23.164Z,11.25
2023-05-08T01:51:05.543Z,12.50
2023-05-08T01:53:42.559Z,13.00
2023-05-08T01:56:19.492Z,12.00
2023-05-08T01:58:48.438Z,12.75
2023-05-08T02:01:19.523Z,11.00
2023-05-08T02:03:49.168Z,11.50
2023-05-08T02:06:21.363Z,12.50
2023-05-08T02:08:50.386Z,12.50
2023-05-08T02:11:21.975Z,12.50
2023-05-08T02:13:50.599Z,12.75
2023-05-08T02:16:19.623Z,13.25
2023-05-08T02:18:52.654Z,12.50
2023-05-08T02:21:22.760Z,12.75
2023-05-08T02:23:52.242Z,13.00
2023-05-08T02:26:21.858Z,12.75
2023-05-08T02:28:52.480Z,12.50
2023-05-08T02:31:22.432Z,11.50
2023-05-08T02:33:52.243Z,12.75
2023-05-08T02:36:22.594Z,13.00
2023-05-08T02:38:53.308Z,12.50
2023-05-08T02:41:23.705Z,13.00
2023-05-08T02:43:54.771Z,11.33
2023-05-08T02:46:49.917Z,12.75
2023-05-08T02:49:37.050Z,11.75
2023-05-08T02:52:33.921Z,13.00
2023-05-08T02:55:08.829Z,13.25
2023-05-08T02:57:59.436Z,13.25
2023-05-08T03:00:32.078Z,13.00
2023-05-08T03:03:08.382Z,12.75
2023-05-08T03:05:38.847Z,12.50
2023-05-08T03:08:11.847Z,12.33
2023-05-08T03:10:42.406Z,12.00
2023-05-08T03:13:12.908Z,12.33
2023-05-08T03:16:00.696Z,12.25
2023-05-08T03:18:36.832Z,13.00
2023-05-08T03:21:06.650Z,13.00
2023-05-08T03:23:37.474Z,13.25
2023-05-08T03:26:06.561Z,13.00
2023-05-08T03:28:36.396Z,13.00
2023-05-08T03:31:06.242Z,12.25
2023-05-08T03:33:37.830Z,12.50
2023-05-08T03:36:06.555Z,13.00
2023-05-08T03:38:36.119Z,12.75
2023-05-08T03:41:04.775Z,13.00
2023-05-08T03:43:34.541Z,14.25
2023-05-08T03:46:03.194Z,13.00
2023-05-08T03:48:34.053Z,12.25
2023-05-08T03:51:04.856Z,12.75
2023-05-08T03:53:36.726Z,13.50
2023-05-08T03:56:05.515Z,12.75
2023-05-08T03:58:49.167Z,14.00
2023-05-08T04:01:29.742Z,13.50
2023-05-08T04:04:12.526Z,14.00
2023-05-08T04:06:50.606Z,14.00
2023-05-08T04:09:38.619Z,12.75
2023-05-08T04:12:20.621Z,14.25
2023-05-08T04:15:11.816Z,14.00
2023-05-08T04:17:51.089Z,13.50
2023-05-08T04:20:22.725Z,15.25
2023-05-08T04:22:53.842Z,14.25
2023-05-08T04:25:43.195Z,13.75
2023-05-08T04:28:12.159Z,14.00
2023-05-08T04:30:42.017Z,15.00
2023-05-08T04:33:10.965Z,14.33
2023-05-08T04:35:39.736Z,13.75
2023-05-08T04:38:08.395Z,14.50
2023-05-08T04:40:37.317Z,14.00
2023-05-08T04:43:05.850Z,14.25
2023-05-08T04:45:34.553Z,13.75
2023-05-08T04:48:02.845Z,14.00
2023-05-08T04:50:32.598Z,14.00
2023-05-08T04:53:00.810Z,14.00
2023-05-08T04:55:29.657Z,13.75
2023-05-08T04:57:58.631Z,14.00
2023-05-08T05:00:27.448Z,14.00
2023-05-08T05:02:55.699Z,14.00
2023-05-08T05:05:25.765Z,14.00
2023-05-08T05:07:54.037Z,13.50
2023-05-08T05:10:23.271Z,14.00
2023-05-08T05:12:51.876Z,15.00
2023-05-08T05:15:20.812Z,14.00
2023-05-08T05:17:49.492Z,14.00
2023-05-08T05:20:18.302Z,14.00
2023-05-08T05:22:46.840Z,14.00
2023-05-08T05:25:16.082Z,15.00
2023-05-08T05:27:44.819Z,15.00
2023-05-08T05:30:13.780Z,14.00
2023-05-08T05:32:42.691Z,15.00
2023-05-08T05:35:11.946Z,14.00
2023-05-08T05:37:40.753Z,15.50
2023-05-08T05:40:13.344Z,13.67
2023-05-08T05:42:42.115Z,14.00
2023-05-08T05:45:11.160Z,16.75
2023-05-08T05:47:45.219Z,14.50
2023-05-08T05:50:14.348Z,15.25
2023-05-08T05:52:42.656Z,14.00
2023-05-08T05:55:12.260Z,14.25
2023-05-08T05:57:41.027Z,15.50
2023-05-08T06:00:11.674Z,14.00
2023-05-08T06:02:44.300Z,14.33
2023-05-08T06:05:16.695Z,15.00
2023-05-08T06:07:44.942Z,13.75
2023-05-08T06:10:13.543Z,14.00
2023-05-08T06:12:42.203Z,14.25
2023-05-08T06:15:13.636Z,14.00
2023-05-08T06:17:44.030Z,15.25
2023-05-08T06:20:13.675Z,14.25
2023-05-08T06:22:42.098Z,14.00
2023-05-08T06:25:11.323Z,13.00
2023-05-08T06:27:39.817Z,14.00
2023-05-08T06:30:11.131Z,14.00
2023-05-08T06:32:39.498Z,14.33
2023-05-08T06:35:08.784Z,13.75
2023-05-08T06:37:37.116Z,14.25
2023-05-08T06:42:37.762Z,14.00
2023-05-08T06:45:07.731Z,14.00
2023-05-08T06:47:36.132Z,14.00
2023-05-08T06:50:05.100Z,14.50
2023-05-08T06:52:33.322Z,14.50
2023-05-08T06:55:01.954Z,15.50
2023-05-08T06:57:30.654Z,14.00
2023-05-08T06:59:59.363Z,14.00
2023-05-08T07:02:27.689Z,15.00
2023-05-08T07:04:56.469Z,15.25
2023-05-08T07:07:24.868Z,14.25
2023-05-08T07:09:53.390Z,14.00
2023-05-08T07:12:21.717Z,14.00
2023-05-08T07:14:50.553Z,14.00
2023-05-08T07:17:18.872Z,13.67
2023-05-08T07:19:51.325Z,14.00
2023-05-08T07:22:19.629Z,14.00
2023-05-08T07:24:48.292Z,14.25
2023-05-08T07:27:16.916Z,14.33
2023-05-08T07:29:45.519Z,14.25
2023-05-08T07:32:13.805Z,14.00
2023-05-08T07:34:42.652Z,14.00
2023-05-08T07:37:12.063Z,14.00
2023-05-08T07:39:40.668Z,14.00
2023-05-08T07:42:09.005Z,14.00
2023-05-08T07:44:47.168Z,14.00
2023-05-08T07:47:21.918Z,14.00
2023-05-08T07:49:50.558Z,13.75
2023-05-08T07:52:18.859Z,15.00
2023-05-08T07:54:47.396Z,15.25
2023-05-08T07:57:15.927Z,15.50
2023-05-08T07:59:44.441Z,13.67
2023-05-08T08:02:12.703Z,15.50
2023-05-08T08:04:41.405Z,14.00
2023-05-08T08:07:09.640Z,15.00
2023-05-08T08:09:38.583Z,15.00
2023-05-08T08:12:06.900Z,15.00
2023-05-08T08:14:35.613Z,15.50
2023-05-08T08:17:03.982Z,15.00
2023-05-08T08:19:32.732Z,15.00
2023-05-08T08:22:02.318Z,15.25
2023-05-08T08:24:32.230Z,15.25
2023-05-08T08:27:00.529Z,14.25
2023-05-08T08:29:29.232Z,15.75
2023-05-08T08:31:57.678Z,16.50
2023-05-08T08:34:26.408Z,15.50
2023-05-08T08:36:55.258Z,15.25
2023-05-08T08:39:24.111Z,15.00
2023-05-08T08:41:52.399Z,15.75
2023-05-08T08:44:21.192Z,16.00
2023-05-08T08:46:52.319Z,15.25
2023-05-08T08:49:36.376Z,16.50
2023-05-08T08:52:13.379Z,17.00
2023-05-08T08:54:44.534Z,16.75
2023-05-08T08:57:13.387Z,17.25
2023-05-08T08:59:43.409Z,15.25
2023-05-08T09:02:15.461Z,15.50
2023-05-08T09:04:44.533Z,17.00
2023-05-08T09:07:12.896Z,15.25
2023-05-08T09:09:42.185Z,17.25
2023-05-08T09:12:10.642Z,15.25
2023-05-08T09:14:39.236Z,15.00
2023-05-08T09:17:07.916Z,17.00
2023-05-08T09:19:36.814Z,15.33
2023-05-08T09:22:07.433Z,15.00
2023-05-08T09:25:00.473Z,15.25
2023-05-08T09:27:30.313Z,17.00
2023-05-08T09:30:06.091Z,15.25
2023-05-08T09:32:39.762Z,15.50
2023-05-08T09:35:09.934Z,15.00
2023-05-08T09:37:42.856Z,15.25
2023-05-08T09:40:15.400Z,15.00
2023-05-08T09:42:44.044Z,16.75
2023-05-08T09:45:29.815Z,15.33
2023-05-08T09:47:58.490Z,14.50
2023-05-08T09:50:28.215Z,15.00
2023-05-08T09:52:56.666Z,15.50
2023-05-08T09:55:25.669Z,17.00
2023-05-08T09:57:53.902Z,15.00
2023-05-08T10:00:22.949Z,16.00
2023-05-08T10:03:09.277Z,15.00
2023-05-08T10:05:38.581Z,15.75
2023-05-08T10:08:20.017Z,15.50
2023-05-08T10:10:49.041Z,16.50
2023-05-08T10:13:17.392Z,15.33
2023-05-08T10:15:49.668Z,15.50
2023-05-08T10:18:18.136Z,15.25
2023-05-08T10:20:48.375Z,15.25
2023-05-08T10:23:17.801Z,15.75
2023-05-08T10:25:47.556Z,13.75
2023-05-08T10:28:21.884Z,15.50
2023-05-08T10:30:50.911Z,15.75
2023-05-08T10:33:21.466Z,15.25
2023-05-08T10:35:50.204Z,17.00
2023-05-08T10:38:19.582Z,14.25
2023-05-08T10:40:48.589Z,16.25
2023-05-08T10:43:17.759Z,15.00
2023-05-08T10:45:46.707Z,15.25
2023-05-08T10:48:29.308Z,16.50
2023-05-08T10:51:03.739Z,15.75
2023-05-08T10:53:37.944Z,16.00
2023-05-08T10:56:06.781Z,16.75
2023-05-08T10:58:37.458Z,15.25
2023-05-08T11:01:08.868Z,15.50
2023-05-08T11:03:42.754Z,17.00
2023-05-08T11:06:11.884Z,16.50
2023-05-08T11:08:51.397Z,15.00
2023-05-08T11:11:22.857Z,16.75
2023-05-08T11:13:55.237Z,16.50
2023-05-08T11:17:02.089Z,15.50
2023-05-08T11:19:30.508Z,15.25
2023-05-08T11:22:22.063Z,16.75
2023-05-08T11:24:57.673Z,18.25
2023-05-08T11:28:07.035Z,17.25
2023-05-08T11:30:37.150Z,16.50
2023-05-08T11:33:05.888Z,16.75
2023-05-08T11:35:58.264Z,16.00
2023-05-08T11:38:32.400Z,15.00
2023-05-08T11:41:22.311Z,15.25
2023-05-08T11:44:18.185Z,14.00
2023-05-08T11:46:51.017Z,15.00
2023-05-08T11:49:29.029Z,15.25
2023-05-08T11:52:00.112Z,13.75
2023-05-08T11:54:30.988Z,14.25
2023-05-08T11:56:59.930Z,14.00
2023-05-08T11:59:28.506Z,14.00
2023-05-08T12:02:07.761Z,14.00
2023-05-08T12:04:45.876Z,14.00
2023-05-08T12:07:14.363Z,14.00
2023-05-08T12:09:42.955Z,14.00
2023-05-08T12:12:11.344Z,14.00
2023-05-08T12:14:39.874Z,14.00
2023-05-08T12:17:08.173Z,13.75
2023-05-08T12:19:36.831Z,13.75
2023-05-08T12:22:05.162Z,14.25
2023-05-08T12:24:33.830Z,14.00
2023-05-08T12:27:02.192Z,14.00
2023-05-08T12:29:30.955Z,15.25
2023-05-08T12:31:59.830Z,15.00
2023-05-08T12:34:28.510Z,15.00
2023-05-08T12:37:05.783Z,16.50
2023-05-08T12:39:37.887Z,13.75
2023-05-08T12:42:06.200Z,15.00
2023-05-08T12:44:34.900Z,15.00
2023-05-08T12:47:05.290Z,14.75
2023-05-08T12:49:34.324Z,13.75
2023-05-08T12:52:07.036Z,15.25
2023-05-08T12:54:37.731Z,15.00
2023-05-08T12:57:13.766Z,14.00
2023-05-08T12:59:43.996Z,15.50
2023-05-08T13:02:17.045Z,14.00
2023-05-08T13:04:46.583Z,15.00
2023-05-08T13:07:15.216Z,15.50
2023-05-08T13:10:03.944Z,14.00
2023-05-08T13:12:33.020Z,14.00
2023-05-08T13:15:05.021Z,15.50
2023-05-08T13:17:33.776Z,14.25
2023-05-08T13:20:06.145Z,15.25
2023-05-08T13:22:34.750Z,15.33
2023-05-08T13:25:04.184Z,15.00
2023-05-08T13:27:32.535Z,15.25
2023-05-08T13:30:01.227Z,15.50
2023-05-08T13:32:29.572Z,15.25
2023-05-08T13:35:00.264Z,14.75
2023-05-08T13:37:30.648Z,15.25
2023-05-08T13:39:59.296Z,15.00
2023-05-08T13:42:27.638Z,13.25
2023-05-08T13:44:56.230Z,15.00
2023-05-08T13:47:24.503Z,15.00
2023-05-08T13:49:53.152Z,15.00
2023-05-08T13:52:21.399Z,15.00
2023-05-08T13:54:49.998Z,15.25
2023-05-08T13:57:18.369Z,15.00
2023-05-08T13:59:47.901Z,15.00
2023-05-08T14:02:16.333Z,15.00
2023-05-08T14:04:44.974Z,15.25
2023-05-08T14:07:13.227Z,15.33
2023-05-08T14:09:41.890Z,16.33
2023-05-08T14:12:10.173Z,16.00
2023-05-08T14:14:38.837Z,16.00
2023-05-08T14:17:07.766Z,16.75
2023-05-08T14:19:36.466Z,17.25
2023-05-08T14:22:05.635Z,18.00
2023-05-08T14:24:34.267Z,17.33
2023-05-08T14:27:06.232Z,16.75
2023-05-08T14:29:35.270Z,15.50
2023-05-08T14:32:03.868Z,18.25
2023-05-08T14:34:32.927Z,16.50
2023-05-08T14:37:01.167Z,16.67
2023-05-08T14:39:29.767Z,16.33
2023-05-08T14:42:18.368Z,16.25
2023-05-08T14:44:46.803Z,16.50
2023-05-08T14:47:15.169Z,15.33
2023-05-08T14:49:43.946Z,16.67
2023-05-08T14:52:12.221Z,16.67
2023-05-08T14:54:41.071Z,15.00
2023-05-08T14:57:09.444Z,17.00
2023-05-08T14:59:41.702Z,16.67
2023-05-08T15:02:18.162Z,15.67
2023-05-08T15:04:46.902Z,16.25
2023-05-08T15:07:15.130Z,13.67
2023-05-08T15:09:44.272Z,15.25
2023-05-08T15:12:12.600Z,15.00
2023-05-08T15:14:41.216Z,15.25
2023-05-08T15:17:09.461Z,17.00
2023-05-08T15:19:38.246Z,15.50
2023-05-08T15:22:06.574Z,15.50
2023-05-08T15:24:35.430Z,16.50
2023-05-08T15:27:04.038Z,16.50
2023-05-08T15:29:32.942Z,16.75
2023-05-08T15:32:01.317Z,16.50
2023-05-08T15:34:32.830Z,15.00
2023-05-08T15:37:01.413Z,16.50
2023-05-08T15:39:29.946Z,15.25
2023-05-08T15:41:58.223Z,17.00
2023-05-08T15:44:34.051Z,16.50
2023-05-08T15:47:10.785Z,15.00
2023-05-08T15:49:39.384Z,16.50
2023-05-08T15:52:07.586Z,15.25
2023-05-08T15:54:36.250Z,15.50
2023-05-08T15:57:04.516Z,15.25
2023-05-08T15:59:33.471Z,14.25
2023-05-08T16:02:02.086Z,15.25
2023-05-08T16:04:31.157Z,15.00
2023-05-08T16:07:00.067Z,15.50
2023-05-08T16:09:28.829Z,15.25
2023-05-08T16:11:57.053Z,15.25
2023-05-08T16:14:25.617Z,15.50
2023-05-08T16:16:53.877Z,13.50
2023-05-08T16:19:22.608Z,15.00
2023-05-08T16:21:51.071Z,15.00
2023-05-08T16:24:20.029Z,16.67
2023-05-08T16:26:48.235Z,15.33
2023-05-08T16:29:16.930Z,15.50
2023-05-08T16:31:45.251Z,15.00
2023-05-08T16:34:14.068Z,15.00
2023-05-08T16:36:42.375Z,16.50
2023-05-08T16:39:12.369Z,15.00
2023-05-08T16:41:40.662Z,16.25
2023-05-08T16:44:09.164Z,15.00
2023-05-08T16:46:37.386Z,15.25
2023-05-08T16:49:05.618Z,15.50
2023-05-08T16:51:34.242Z,16.00
2023-05-08T16:54:02.552Z,15.50
2023-05-08T16:56:31.101Z,16.00
2023-05-08T16:59:01.566Z,17.75
2023-05-08T17:01:30.169Z,16.50
2023-05-08T17:03:58.360Z,17.50
2023-05-08T17:06:28.930Z,15.00
2023-05-08T17:08:57.107Z,16.00
2023-05-08T17:11:26.005Z,16.50
2023-05-08T17:13:54.218Z,16.33
2023-05-08T17:16:22.843Z,16.33
2023-05-08T17:18:51.092Z,15.25
2023-05-08T17:21:19.929Z,15.50
2023-05-08T17:23:48.175Z,16.25
2023-05-08T17:26:16.809Z,17.00
2023-05-08T17:28:45.052Z,16.33
2023-05-08T17:33:43.132Z,18.00
2023-05-08T17:36:11.710Z,16.50
2023-05-08T17:38:45.953Z,18.50
2023-05-08T17:41:14.958Z,17.67
2023-05-08T17:43:43.243Z,16.00
2023-05-08T17:46:11.855Z,16.00
2023-05-08T17:48:40.184Z,16.00
2023-05-08T17:51:12.498Z,15.00
2023-05-08T17:53:40.789Z,16.67
2023-05-08T17:56:09.614Z,16.50
2023-05-08T17:58:38.150Z,16.75
2023-05-08T18:01:07.135Z,16.75
2023-05-08T18:03:35.364Z,17.00
2023-05-08T18:06:04.087Z,15.75
2023-05-08T18:08:33.991Z,16.50
2023-05-08T18:11:03.534Z,16.50
2023-05-08T18:13:33.782Z,15.00
2023-05-08T18:16:04.741Z,16.50
2023-05-08T18:18:33.510Z,16.75
2023-05-08T18:21:02.153Z,17.00
2023-05-08T18:23:31.371Z,16.67
2023-05-08T18:26:00.114Z,17.33
2023-05-08T18:28:28.729Z,16.00
2023-05-08T18:30:57.401Z,16.50
2023-05-08T18:33:25.681Z,18.00
2023-05-08T18:35:54.394Z,15.00
2023-05-08T18:38:24.631Z,17.00
2023-05-08T18:40:53.516Z,16.75
2023-05-08T18:43:21.896Z,16.33
2023-05-08T18:45:50.740Z,16.75
2023-05-08T18:48:19.080Z,16.75
2023-05-08T18:50:47.682Z,14.50
2023-05-08T18:53:16.048Z,17.00
2023-05-08T18:55:45.188Z,16.50
2023-05-08T18:58:13.572Z,16.50
2023-05-08T19:00:42.306Z,16.50
2023-05-08T19:03:10.801Z,16.75
2023-05-08T19:05:41.625Z,15.00
2023-05-08T19:08:10.124Z,16.50
2023-05-08T19:10:38.890Z,17.00
2023-05-08T19:13:07.270Z,16.67
2023-05-08T19:15:36.021Z,17.50
2023-05-08T19:18:04.754Z,16.33
2023-05-08T19:20:33.875Z,17.50
2023-05-08T19:23:02.159Z,18.50
2023-05-08T19:25:30.866Z,20.33
2023-05-08T19:27:59.358Z,18.00
2023-05-08T19:30:28.061Z,18.00
2023-05-08T19:32:56.480Z,18.00
2023-05-08T19:35:25.256Z,18.00
2023-05-08T19:37:53.600Z,20.33
2023-05-08T19:40:22.289Z,18.75
2023-05-08T19:42:50.638Z,19.67
2023-05-08T19:45:19.361Z,19.50
2023-05-08T19:47:50.392Z,18.25
2023-05-08T19:50:20.435Z,18.00
2023-05-08T19:52:53.788Z,17.00
2023-05-08T19:55:24.262Z,18.00
2023-05-08T19:57:56.092Z,18.00
2023-05-08T20:00:27.203Z,17.50
2023-05-08T20:02:57.050Z,18.25
2023-05-08T20:05:29.084Z,17.50
2023-05-08T20:08:07.431Z,19.50
2023-05-08T20:10:37.989Z,17.25
2023-05-08T20:13:06.589Z,17.33
2023-05-08T20:15:36.267Z,17.75
2023-05-08T20:18:06.388Z,16.00
2023-05-08T20:20:36.555Z,16.50
2023-05-08T20:23:06.382Z,16.50
2023-05-08T20:25:36.502Z,16.33
2023-05-08T20:28:06.460Z,17.75
2023-05-08T20:30:36.611Z,18.00
2023-05-08T20:33:05.702Z,18.25
2023-05-08T20:35:35.612Z,16.67
2023-05-08T20:38:03.923Z,17.67
2023-05-08T20:40:32.559Z,16.25
2023-05-08T20:43:00.828Z,17.67
2023-05-08T20:45:29.457Z,18.33
2023-05-08T20:47:57.944Z,17.50
2023-05-08T20:50:26.875Z,18.25
2023-05-08T20:52:55.180Z,18.75
2023-05-08T20:55:23.980Z,17.75
2023-05-08T20:57:52.362Z,17.50
2023-05-08T21:00:22.190Z,17.25
2023-05-08T21:02:50.697Z,18.25
2023-05-08T21:05:19.457Z,18.00
2023-05-08T21:07:47.719Z,18.00
2023-05-08T21:10:16.920Z,17.75
2023-05-08T21:12:45.660Z,19.75
2023-05-08T21:15:14.482Z,17.50
2023-05-08T21:17:43.030Z,18.00
2023-05-08T21:20:12.510Z,18.00
2023-05-08T21:22:41.044Z,18.00
2023-05-08T21:25:17.375Z,18.50
2023-05-08T21:27:45.688Z,18.25
2023-05-08T21:30:15.595Z,17.75
2023-05-08T21:32:45.047Z,18.25
2023-05-08T21:35:14.023Z,17.25
2023-05-08T21:37:42.488Z,19.00
2023-05-08T21:40:11.331Z,18.67
2023-05-08T21:42:39.814Z,16.33
2023-05-08T21:45:08.855Z,17.75
2023-05-08T21:47:37.325Z,19.50
2023-05-08T21:50:06.811Z,17.50
2023-05-08T21:52:35.044Z,19.25
2023-05-08T21:55:08.701Z,18.00
2023-05-08T21:57:37.109Z,17.50
2023-05-08T22:00:08.282Z,17.75
2023-05-08T22:02:36.696Z,16.50
2023-05-08T22:05:06.457Z,17.00
2023-05-08T22:07:34.915Z,16.50
2023-05-08T22:10:04.129Z,16.67
2023-05-08T22:12:32.515Z,18.25
2023-05-08T22:15:01.083Z,16.50
2023-05-08T22:17:29.431Z,17.67
2023-05-08T22:19:58.241Z,17.25
2023-05-08T22:22:26.574Z,16.67
2023-05-08T22:24:55.298Z,16.50
2023-05-08T22:27:23.628Z,17.67
2023-05-08T22:29:52.464Z,18.00
2023-05-08T22:32:20.794Z,16.33
2023-05-08T22:34:50.192Z,16.75
2023-05-08T22:37:18.512Z,18.25
2023-05-08T22:39:47.169Z,17.75
2023-05-08T22:42:18.807Z,16.25
2023-05-08T22:44:47.448Z,16.50
2023-05-08T22:47:16.358Z,15.75
2023-05-08T22:49:45.314Z,16.75
2023-05-08T22:52:13.597Z,15.25
2023-05-08T22:54:42.222Z,15.00
2023-05-08T22:57:10.491Z,15.33
2023-05-08T22:59:39.144Z,15.25
2023-05-08T23:02:07.474Z,15.00
2023-05-08T23:04:36.287Z,15.00
2023-05-08T23:07:04.957Z,15.00
2023-05-08T23:09:33.609Z,14.00
2023-05-08T23:12:01.843Z,14.25
2023-05-08T23:14:30.566Z,15.00
2023-05-08T23:16:59.031Z,14.00
2023-05-08T23:19:27.726Z,14.00
2023-05-08T23:21:56.005Z,14.25
2023-05-08T23:24:24.615Z,15.25
2023-05-08T23:26:53.434Z,15.33
2023-05-08T23:29:22.085Z,15.50
2023-05-08T23:31:50.361Z,14.25
2023-05-08T23:34:18.977Z,15.00
2023-05-08T23:36:47.306Z,14.00
2023-05-08T23:39:15.926Z,14.00
2023-05-08T23:41:44.209Z,15.00
2023-05-08T23:44:12.826Z,14.00
2023-05-08T23:46:41.204Z,14.00
2023-05-08T23:49:09.893Z,15.00
2023-05-08T23:51:38.354Z,14.00
2023-05-08T23:54:07.157Z,14.00
2023-05-08T23:56:35.482Z,15.50
2023-05-08T23:59:04.066Z,14.00
